Plymouth Light

42° 00' 12"N, 70° 36' 04"W, Elevation 54 ft.
Eastern Time

Hourly observations for the last 72 hours

Date Time Temperature (°F) Humi-
dity

(%)
Wind
(mph)
Pressure Rain (in) Sun
(W/m2)
ET
(in)
Air Dew 6 Hour 1 Hr 3 Hr 6 Hr Day
Alt
(in)
Sea
Level

(mb)
Max Min
13 20:00 58.6 53.5 61.3 58.4 83 SE 7 G 10 30.16 1021.5 0.00 11 0.173
13 19:00 59.2 54.0 83 ESE 7 G 10 30.15 1021.0 0.00 135 0.167
13 18:00 58.9 54.1 84 E 7 G 11 30.14 1020.6 0.00 322 0.158
13 17:00 59.0 53.8 83 E 12 G 13 30.13 1020.4 0.00 490 0.145
13 16:00 60.8 55.3 82 NE 7 G 11 30.12 1020.1 0.00 643 0.130
13 15:00 59.1 52.9 80 E 11 G 13 30.12 1020.0 0.00 763 0.112
13 14:00 60.9 52.9 62.6 58.5 75 ENE 10 G 12 30.12 1020.1 0.00 853 0.092
13 13:00 61.1 53.8 77 NE 9 G 13 30.12 1020.1 0.00 895 0.072
13 12:00 60.6 53.0 76 NNE 8 G 12 30.12 1020.0 0.00 889 0.054
13 11:00 62.0 52.9 72 N 5 G 11 30.11 1019.7 0.00 916 0.037
13 10:00 60.3 51.6 73 N 7 G 13 30.10 1019.2 0.00 761 0.024
13 09:00 59.6 50.2 71 N 6 G 13 30.09 1019.1 0.00 188 0.017
13 08:00 61.1 51.3 63.9 59.8 70 N 3 G 11 30.08 1018.6 0.00 253 0.011
13 07:00 61.5 48.8 63 N 5 G 11 30.07 1018.2 0.00 139 0.007
13 06:00 61.0 47.9 62 N 5 G 13 30.06 1017.8 0.00 23 0.005
13 05:00 60.7 48.0 63 N 3 G 7 30.04 1017.2 0.00 0 0.004
13 04:00 62.1 50.6 66 NNW 3 G 5 30.02 1016.6 0.00 0 0.003
13 03:00 62.7 51.6 67 NNW 4 G 6 30.01 1016.4 0.00 0 0.002
13 02:00 63.6 52.0 67.1 63.1 66 NW 3 G 5 30.00 1016.0 0.00 0 0.001
13 01:00 63.9 53.9 70 NNW 4 G 8 29.99 1015.7 0.00 0 0.000
13 00:00 64.3 55.8 74 N 4 G 9 29.98 1015.3 0.00 0 0.127
12 23:00 65.7 62.7 90 NW 5 G 9 29.98 1015.2 0.00 0 0.126
12 22:00 65.9 63.2 91 W 4 G 8 29.97 1014.9 0.00 0 0.125
12 21:00 66.2 62.9 89 WSW 4 G 8 29.95 1014.1 0.00 0 0.124
12 20:00 66.3 62.3 69.4 61.9 87 SW 11 G 14 29.93 1013.6 0.00 12 0.121
12 19:00 67.9 62.6 83 SW 13 G 15 29.92 1013.1 0.00 127 0.115
12 18:00 69.1 63.0 81 SSW 11 G 15 29.92 1013.1 0.00 308 0.107
12 17:00 63.2 59.9 89 S 13 G 19 29.92 1013.3 0.00 258 0.095
12 16:00 62.6 59.6 90 SSE 10 G 16 29.93 1013.6 0.00 628 0.080
12 15:00 62.9 59.9 90 SSE 13 G 20 29.95 1014.1 0.00 758 0.061
12 14:00 63.9 59.6 67.5 62.8 86 S 16 G 19 29.97 1014.9 0.00 875 0.042
12 13:00 65.9 64.4 95 S 8 G 12 29.99 1015.7 0.00 879 0.029
12 12:00 67.3 67.0 99 SSW 5 G 9 30.01 1016.2 0.00 592 0.018
12 11:00 66.4 66.4 100 SW 5 G 9 30.02 1016.5 0.00 512 0.011
12 10:00 65.9 65.6 99 SW 7 G 9 30.02 1016.8 0.00 186 0.007
12 09:00 65.9 65.9 100 W 5 G 8 30.02 1016.7 0.00 287 0.003
12 08:00 64.3 64.3 65.3 59.7 100 SW 4 G 8 30.04 1017.2 0.00 172 0.001
12 07:00 63.4 63.1 99 SW 6 G 8 30.03 1017.0 0.00 56 0.000
12 06:00 63.2 63.2 100 SW 2 G 4 30.02 1016.5 0.00 23 0.000
12 05:00 60.4 60.1 99 SW 8 G 11 30.02 1016.6 0.00 0 0.000
12 04:00 59.8 59.2 98 S 3 G 8 30.00 1016.0 0.00 0 0.000
12 03:00 64.8 64.2 98 SW 2 G 6 29.99 1015.6 0.00 0 0.000
12 02:00 65.0 64.4 67.2 61.8 98 WSW 6 G 10 30.00 1015.8 0.06 0.00 0 0.000
12 01:00 65.6 65.0 98 W 8 G 12 30.00 1016.1 0.00 0 0.000
12 00:00 65.9 65.0 97 W 8 G 13 30.01 1016.2 0.51 0 0.094
11 23:00 66.3 65.4 97 W 11 G 21 30.00 1016.0 0.01 0.06 0.51 0 0.094
11 22:00 66.8 66.2 98 WSW 16 G 24 30.01 1016.4 0.50 0 0.094
11 21:00 64.4 64.1 99 WSW 7 G 13 30.01 1016.2 0.05 0.50 0 0.094
11 20:00 62.4 62.1 67.7 61.2 99 SW 15 G 20 30.01 1016.2 0.12 0.31 0.45 0.45 0 0.094
11 19:00 62.2 61.6 98 SSW 17 G 21 30.00 1016.1 0.19 0.33 0 0.094
11 18:00 62.0 61.1 97 SW 16 G 20 30.00 1015.9 0.14 7 0.093
11 17:00 62.9 61.7 96 SW 15 G 20 30.00 1015.8 0.07 0.14 0.14 81 0.091
11 16:00 63.4 61.9 95 SW 16 G 21 29.99 1015.7 0.07 0.07 81 0.088
11 15:00 65.4 62.4 90 SW 19 G 27 30.00 1015.8 0.00 88 0.082
11 14:00 66.4 63.4 72.1 66.2 90 SW 17 G 30 30.00 1016.1 0.00 144 0.075
11 13:00 68.5 64.5 87 SSW 21 G 35 30.00 1015.8 0.00 174 0.065
11 12:00 70.7 66.0 85 SW 23 G 35 30.00 1015.9 0.00 350 0.052
11 11:00 71.7 66.6 84 SW 21 G 33 30.00 1015.8 0.00 613 0.040
11 10:00 70.3 65.6 85 SW 21 G 31 29.99 1015.6 0.00 301 0.026
11 09:00 70.4 65.3 84 WSW 18 G 36 29.99 1015.6 0.00 615 0.014
11 08:00 70.3 66.3 70.3 63.1 87 SW 21 G 35 29.99 1015.7 0.00 432 0.005
11 07:00 67.5 64.5 90 SW 21 G 32 29.99 1015.7 0.00 120 0.001
11 06:00 65.6 63.5 93 SSW 15 G 23 30.00 1015.8 0.00 54 0.000
11 05:00 65.7 64.2 95 SW 16 G 26 30.00 1015.9 0.00 0 0.000
11 04:00 64.3 63.7 98 SW 16 G 20 30.00 1015.8 0.00 0 0.000
11 03:00 63.7 63.1 98 SW 13 G 20 30.01 1016.3 0.00 0 0.000
11 02:00 63.6 63.3 64.2 60.0 99 SW 13 G 20 30.01 1016.3 0.00 0 0.000
11 01:00 64.1 63.8 99 SSW 8 G 17 30.01 1016.3 0.00 0 0.000
11 00:00 62.7 62.4 99 SSW 7 G 11 30.02 1016.7 0.00 0 0.147
10 23:00 61.6 61.3 99 S 6 G 9 30.03 1017.0 0.00 0 0.147
10 22:00 60.3 60.0 99 S 14 G 19 30.03 1016.9 0.00 0 0.147
10 21:00 60.2 59.6 98 S 15 G 21 30.03 1016.9 0.00 0 0.147

Data generated by WxSolution Version 1.9.1.1, Build 2017.11.27.